sensor_id;sensor_type;location;lat;lon;timestamp;P1;durP1;ratioP1;P2;durP2;ratioP2
66129;SDS011;52930;51.464;11.764;2022-12-11T00:00:14;23.90;;;9.03;;
66129;SDS011;52930;51.464;11.764;2022-12-11T00:02:39;22.20;;;8.00;;
66129;SDS011;52930;51.464;11.764;2022-12-11T00:05:05;23.58;;;8.38;;
66129;SDS011;52930;51.464;11.764;2022-12-11T00:07:31;26.97;;;9.17;;
66129;SDS011;52930;51.464;11.764;2022-12-11T00:09:56;24.50;;;7.93;;
66129;SDS011;52930;51.464;11.764;2022-12-11T00:12:22;25.17;;;8.70;;
66129;SDS011;52930;51.464;11.764;2022-12-11T00:14:47;26.93;;;8.67;;
66129;SDS011;52930;51.464;11.764;2022-12-11T00:17:13;21.30;;;8.67;;
66129;SDS011;52930;51.464;11.764;2022-12-11T00:19:38;26.55;;;8.10;;
66129;SDS011;52930;51.464;11.764;2022-12-11T00:22:03;25.83;;;9.32;;
66129;SDS011;52930;51.464;11.764;2022-12-11T00:24:29;23.47;;;8.93;;
66129;SDS011;52930;51.464;11.764;2022-12-11T00:26:54;22.00;;;8.67;;
66129;SDS011;52930;51.464;11.764;2022-12-11T00:29:20;23.90;;;8.57;;
66129;SDS011;52930;51.464;11.764;2022-12-11T00:31:45;23.93;;;8.70;;
66129;SDS011;52930;51.464;11.764;2022-12-11T00:34:11;23.50;;;8.68;;
66129;SDS011;52930;51.464;11.764;2022-12-11T00:36:36;25.70;;;8.30;;
66129;SDS011;52930;51.464;11.764;2022-12-11T00:39:02;24.47;;;9.47;;
66129;SDS011;52930;51.464;11.764;2022-12-11T00:41:28;22.45;;;8.80;;
66129;SDS011;52930;51.464;11.764;2022-12-11T00:43:54;24.67;;;8.47;;
66129;SDS011;52930;51.464;11.764;2022-12-11T00:46:19;24.07;;;8.30;;
66129;SDS011;52930;51.464;11.764;2022-12-11T00:48:44;25.40;;;8.97;;
66129;SDS011;52930;51.464;11.764;2022-12-11T00:51:10;20.25;;;7.43;;
66129;SDS011;52930;51.464;11.764;2022-12-11T00:53:36;20.87;;;6.93;;
66129;SDS011;52930;51.464;11.764;2022-12-11T00:56:08;24.25;;;8.60;;
66129;SDS011;52930;51.464;11.764;2022-12-11T00:58:34;22.25;;;7.95;;
66129;SDS011;52930;51.464;11.764;2022-12-11T01:01:06;21.80;;;7.30;;
66129;SDS011;52930;51.464;11.764;2022-12-11T01:03:33;22.77;;;7.20;;
66129;SDS011;52930;51.464;11.764;2022-12-11T01:05:58;18.93;;;6.83;;
66129;SDS011;52930;51.464;11.764;2022-12-11T01:08:24;23.53;;;7.73;;
66129;SDS011;52930;51.464;11.764;2022-12-11T01:10:49;16.80;;;5.97;;
66129;SDS011;52930;51.464;11.764;2022-12-11T01:13:14;20.02;;;6.53;;
66129;SDS011;52930;51.464;11.764;2022-12-11T01:15:41;18.90;;;6.17;;
66129;SDS011;52930;51.464;11.764;2022-12-11T01:18:08;18.98;;;7.03;;
66129;SDS011;52930;51.464;11.764;2022-12-11T01:20:36;20.23;;;7.20;;
66129;SDS011;52930;51.464;11.764;2022-12-11T01:23:03;20.35;;;6.30;;
66129;SDS011;52930;51.464;11.764;2022-12-11T01:25:28;17.03;;;5.80;;
66129;SDS011;52930;51.464;11.764;2022-12-11T01:27:54;17.43;;;6.13;;
66129;SDS011;52930;51.464;11.764;2022-12-11T01:30:20;17.17;;;5.82;;
66129;SDS011;52930;51.464;11.764;2022-12-11T01:32:46;15.30;;;6.03;;
66129;SDS011;52930;51.464;11.764;2022-12-11T01:35:12;18.93;;;6.87;;
66129;SDS011;52930;51.464;11.764;2022-12-11T01:37:38;18.95;;;6.60;;
66129;SDS011;52930;51.464;11.764;2022-12-11T01:40:04;18.90;;;6.90;;
66129;SDS011;52930;51.464;11.764;2022-12-11T01:42:30;20.77;;;7.18;;
66129;SDS011;52930;51.464;11.764;2022-12-11T01:47:51;18.55;;;6.32;;
66129;SDS011;52930;51.464;11.764;2022-12-11T01:50:22;15.73;;;5.65;;
66129;SDS011;52930;51.464;11.764;2022-12-11T01:52:48;18.98;;;5.80;;
66129;SDS011;52930;51.464;11.764;2022-12-11T01:55:14;20.27;;;7.07;;
66129;SDS011;52930;51.464;11.764;2022-12-11T01:57:41;19.35;;;7.43;;
66129;SDS011;52930;51.464;11.764;2022-12-11T02:00:07;19.38;;;7.50;;
66129;SDS011;52930;51.464;11.764;2022-12-11T02:02:33;17.88;;;6.57;;
66129;SDS011;52930;51.464;11.764;2022-12-11T02:05:02;21.30;;;6.63;;
66129;SDS011;52930;51.464;11.764;2022-12-11T02:07:29;19.30;;;7.13;;
66129;SDS011;52930;51.464;11.764;2022-12-11T02:10:06;17.25;;;6.15;;
66129;SDS011;52930;51.464;11.764;2022-12-11T02:12:38;18.25;;;6.68;;
66129;SDS011;52930;51.464;11.764;2022-12-11T02:15:11;20.00;;;6.57;;
66129;SDS011;52930;51.464;11.764;2022-12-11T02:20:33;19.98;;;6.45;;
66129;SDS011;52930;51.464;11.764;2022-12-11T02:23:05;16.65;;;5.47;;
66129;SDS011;52930;51.464;11.764;2022-12-11T02:25:50;17.73;;;6.30;;
66129;SDS011;52930;51.464;11.764;2022-12-11T02:29:05;19.47;;;6.40;;
66129;SDS011;52930;51.464;11.764;2022-12-11T02:31:26;19.38;;;6.95;;
66129;SDS011;52930;51.464;11.764;2022-12-11T02:36:40;18.63;;;5.82;;
66129;SDS011;52930;51.464;11.764;2022-12-11T02:39:10;16.63;;;6.20;;
66129;SDS011;52930;51.464;11.764;2022-12-11T02:41:37;18.83;;;5.90;;
66129;SDS011;52930;51.464;11.764;2022-12-11T02:44:04;17.70;;;5.90;;
66129;SDS011;52930;51.464;11.764;2022-12-11T02:46:30;15.93;;;5.88;;
66129;SDS011;52930;51.464;11.764;2022-12-11T02:48:56;20.60;;;7.00;;
66129;SDS011;52930;51.464;11.764;2022-12-11T02:51:27;18.48;;;7.30;;
66129;SDS011;52930;51.464;11.764;2022-12-11T02:53:56;20.92;;;7.18;;
66129;SDS011;52930;51.464;11.764;2022-12-11T02:56:23;20.67;;;6.77;;
66129;SDS011;52930;51.464;11.764;2022-12-11T02:59:14;17.65;;;6.90;;
66129;SDS011;52930;51.464;11.764;2022-12-11T03:01:42;20.63;;;7.10;;
66129;SDS011;52930;51.464;11.764;2022-12-11T03:04:07;18.73;;;6.50;;
66129;SDS011;52930;51.464;11.764;2022-12-11T03:06:35;23.08;;;7.38;;
66129;SDS011;52930;51.464;11.764;2022-12-11T03:09:03;22.48;;;7.80;;
66129;SDS011;52930;51.464;11.764;2022-12-11T03:11:29;19.88;;;7.45;;
66129;SDS011;52930;51.464;11.764;2022-12-11T03:13:54;22.37;;;7.83;;
66129;SDS011;52930;51.464;11.764;2022-12-11T03:16:28;20.50;;;7.67;;
66129;SDS011;52930;51.464;11.764;2022-12-11T03:21:45;20.90;;;8.18;;
66129;SDS011;52930;51.464;11.764;2022-12-11T03:26:49;21.23;;;7.50;;
66129;SDS011;52930;51.464;11.764;2022-12-11T03:29:24;22.00;;;7.40;;
66129;SDS011;52930;51.464;11.764;2022-12-11T03:31:58;21.58;;;8.05;;
66129;SDS011;52930;51.464;11.764;2022-12-11T03:34:41;22.75;;;8.10;;
66129;SDS011;52930;51.464;11.764;2022-12-11T03:37:09;22.33;;;8.30;;
66129;SDS011;52930;51.464;11.764;2022-12-11T03:39:37;24.63;;;8.10;;
66129;SDS011;52930;51.464;11.764;2022-12-11T03:42:05;22.03;;;8.20;;
66129;SDS011;52930;51.464;11.764;2022-12-11T03:44:32;22.15;;;8.18;;
66129;SDS011;52930;51.464;11.764;2022-12-11T03:46:59;23.50;;;8.05;;
66129;SDS011;52930;51.464;11.764;2022-12-11T03:49:26;21.25;;;7.85;;
66129;SDS011;52930;51.464;11.764;2022-12-11T03:51:54;23.00;;;7.90;;
66129;SDS011;52930;51.464;11.764;2022-12-11T03:54:21;20.27;;;7.27;;
66129;SDS011;52930;51.464;11.764;2022-12-11T03:56:47;21.50;;;8.38;;
66129;SDS011;52930;51.464;11.764;2022-12-11T03:59:15;25.83;;;8.55;;
66129;SDS011;52930;51.464;11.764;2022-12-11T04:01:41;20.63;;;7.53;;
66129;SDS011;52930;51.464;11.764;2022-12-11T04:04:06;23.60;;;8.47;;
66129;SDS011;52930;51.464;11.764;2022-12-11T04:06:31;23.50;;;7.83;;
66129;SDS011;52930;51.464;11.764;2022-12-11T04:08:57;20.38;;;7.18;;
66129;SDS011;52930;51.464;11.764;2022-12-11T04:11:22;21.30;;;8.60;;
66129;SDS011;52930;51.464;11.764;2022-12-11T04:14:00;22.63;;;8.10;;
66129;SDS011;52930;51.464;11.764;2022-12-11T04:16:52;23.67;;;8.30;;
66129;SDS011;52930;51.464;11.764;2022-12-11T04:19:18;24.45;;;8.07;;
66129;SDS011;52930;51.464;11.764;2022-12-11T04:22:02;23.58;;;8.02;;
66129;SDS011;52930;51.464;11.764;2022-12-11T04:24:47;21.40;;;8.07;;
66129;SDS011;52930;51.464;11.764;2022-12-11T04:27:16;23.10;;;8.90;;
66129;SDS011;52930;51.464;11.764;2022-12-11T04:30:03;20.70;;;7.72;;
66129;SDS011;52930;51.464;11.764;2022-12-11T04:32:29;20.70;;;8.07;;
66129;SDS011;52930;51.464;11.764;2022-12-11T04:34:55;20.77;;;7.63;;
66129;SDS011;52930;51.464;11.764;2022-12-11T04:37:20;22.03;;;8.17;;
66129;SDS011;52930;51.464;11.764;2022-12-11T04:39:46;21.83;;;8.40;;
66129;SDS011;52930;51.464;11.764;2022-12-11T04:42:11;20.67;;;8.00;;
66129;SDS011;52930;51.464;11.764;2022-12-11T04:44:36;22.77;;;7.90;;
66129;SDS011;52930;51.464;11.764;2022-12-11T04:47:03;21.27;;;7.97;;
66129;SDS011;52930;51.464;11.764;2022-12-11T04:49:28;20.25;;;7.75;;
66129;SDS011;52930;51.464;11.764;2022-12-11T04:51:53;22.30;;;7.53;;
66129;SDS011;52930;51.464;11.764;2022-12-11T04:54:19;23.83;;;9.13;;
66129;SDS011;52930;51.464;11.764;2022-12-11T04:56:44;23.20;;;8.00;;
66129;SDS011;52930;51.464;11.764;2022-12-11T04:59:09;21.87;;;7.93;;
66129;SDS011;52930;51.464;11.764;2022-12-11T05:01:35;25.17;;;8.43;;
66129;SDS011;52930;51.464;11.764;2022-12-11T05:04:00;22.40;;;7.87;;
66129;SDS011;52930;51.464;11.764;2022-12-11T05:06:25;19.33;;;7.57;;
66129;SDS011;52930;51.464;11.764;2022-12-11T05:08:51;21.88;;;7.53;;
66129;SDS011;52930;51.464;11.764;2022-12-11T05:11:18;19.63;;;7.70;;
66129;SDS011;52930;51.464;11.764;2022-12-11T05:13:43;21.30;;;7.63;;
66129;SDS011;52930;51.464;11.764;2022-12-11T05:16:10;20.42;;;7.97;;
66129;SDS011;52930;51.464;11.764;2022-12-11T05:18:36;18.67;;;7.30;;
66129;SDS011;52930;51.464;11.764;2022-12-11T05:21:07;21.25;;;7.63;;
66129;SDS011;52930;51.464;11.764;2022-12-11T05:23:33;23.10;;;9.10;;
66129;SDS011;52930;51.464;11.764;2022-12-11T05:26:00;21.58;;;7.45;;
66129;SDS011;52930;51.464;11.764;2022-12-11T05:28:28;18.90;;;7.28;;
66129;SDS011;52930;51.464;11.764;2022-12-11T05:30:56;22.13;;;8.03;;
66129;SDS011;52930;51.464;11.764;2022-12-11T05:33:23;22.00;;;7.80;;
66129;SDS011;52930;51.464;11.764;2022-12-11T05:35:48;20.63;;;6.97;;
66129;SDS011;52930;51.464;11.764;2022-12-11T05:38:14;19.97;;;7.50;;
66129;SDS011;52930;51.464;11.764;2022-12-11T05:40:39;19.47;;;7.57;;
66129;SDS011;52930;51.464;11.764;2022-12-11T05:43:05;21.13;;;8.10;;
66129;SDS011;52930;51.464;11.764;2022-12-11T05:45:30;22.03;;;7.83;;
66129;SDS011;52930;51.464;11.764;2022-12-11T05:47:56;23.15;;;8.45;;
66129;SDS011;52930;51.464;11.764;2022-12-11T05:50:22;21.20;;;8.20;;
66129;SDS011;52930;51.464;11.764;2022-12-11T05:52:47;21.17;;;7.60;;
66129;SDS011;52930;51.464;11.764;2022-12-11T05:55:13;24.05;;;8.23;;
66129;SDS011;52930;51.464;11.764;2022-12-11T05:57:38;20.90;;;7.20;;
66129;SDS011;52930;51.464;11.764;2022-12-11T06:00:04;19.23;;;7.33;;
66129;SDS011;52930;51.464;11.764;2022-12-11T06:02:33;20.48;;;7.68;;
66129;SDS011;52930;51.464;11.764;2022-12-11T06:04:59;19.30;;;7.70;;
66129;SDS011;52930;51.464;11.764;2022-12-11T06:07:24;21.85;;;8.32;;
66129;SDS011;52930;51.464;11.764;2022-12-11T06:09:49;18.60;;;7.30;;
66129;SDS011;52930;51.464;11.764;2022-12-11T06:12:15;19.87;;;7.37;;
66129;SDS011;52930;51.464;11.764;2022-12-11T06:14:40;18.47;;;7.50;;
66129;SDS011;52930;51.464;11.764;2022-12-11T06:17:06;18.30;;;6.97;;
66129;SDS011;52930;51.464;11.764;2022-12-11T06:19:31;20.37;;;7.80;;
66129;SDS011;52930;51.464;11.764;2022-12-11T06:21:56;22.77;;;7.90;;
66129;SDS011;52930;51.464;11.764;2022-12-11T06:24:22;19.92;;;7.35;;
66129;SDS011;52930;51.464;11.764;2022-12-11T06:26:47;21.92;;;7.70;;
66129;SDS011;52930;51.464;11.764;2022-12-11T06:29:12;20.33;;;7.00;;
66129;SDS011;52930;51.464;11.764;2022-12-11T06:31:38;18.33;;;7.20;;
66129;SDS011;52930;51.464;11.764;2022-12-11T06:34:03;20.33;;;6.50;;
66129;SDS011;52930;51.464;11.764;2022-12-11T06:36:29;14.33;;;5.17;;
66129;SDS011;52930;51.464;11.764;2022-12-11T06:38:54;16.27;;;6.10;;
66129;SDS011;52930;51.464;11.764;2022-12-11T06:41:19;18.27;;;6.23;;
66129;SDS011;52930;51.464;11.764;2022-12-11T06:43:45;19.70;;;6.53;;
66129;SDS011;52930;51.464;11.764;2022-12-11T06:46:12;17.97;;;6.30;;
66129;SDS011;52930;51.464;11.764;2022-12-11T06:48:38;17.08;;;5.85;;
66129;SDS011;52930;51.464;11.764;2022-12-11T06:51:06;15.47;;;6.00;;
66129;SDS011;52930;51.464;11.764;2022-12-11T06:53:32;18.40;;;6.57;;
66129;SDS011;52930;51.464;11.764;2022-12-11T06:56:05;15.98;;;5.47;;
66129;SDS011;52930;51.464;11.764;2022-12-11T06:58:33;15.73;;;5.95;;
66129;SDS011;52930;51.464;11.764;2022-12-11T07:00:59;21.40;;;5.00;;
66129;SDS011;52930;51.464;11.764;2022-12-11T07:03:26;14.80;;;5.28;;
66129;SDS011;52930;51.464;11.764;2022-12-11T07:05:51;15.40;;;5.15;;
66129;SDS011;52930;51.464;11.764;2022-12-11T07:08:17;20.23;;;5.90;;
66129;SDS011;52930;51.464;11.764;2022-12-11T07:10:42;18.43;;;5.47;;
66129;SDS011;52930;51.464;11.764;2022-12-11T07:13:07;17.20;;;5.07;;
66129;SDS011;52930;51.464;11.764;2022-12-11T07:15:33;15.98;;;5.63;;
66129;SDS011;52930;51.464;11.764;2022-12-11T07:17:59;16.73;;;5.47;;
66129;SDS011;52930;51.464;11.764;2022-12-11T07:20:24;15.73;;;5.50;;
66129;SDS011;52930;51.464;11.764;2022-12-11T07:22:50;15.35;;;5.97;;
66129;SDS011;52930;51.464;11.764;2022-12-11T07:25:15;14.48;;;5.22;;
66129;SDS011;52930;51.464;11.764;2022-12-11T07:27:40;13.23;;;5.10;;
66129;SDS011;52930;51.464;11.764;2022-12-11T07:30:06;18.40;;;5.83;;
66129;SDS011;52930;51.464;11.764;2022-12-11T07:32:33;14.48;;;5.70;;
66129;SDS011;52930;51.464;11.764;2022-12-11T07:34:58;15.67;;;5.73;;
66129;SDS011;52930;51.464;11.764;2022-12-11T07:37:23;15.68;;;4.88;;
66129;SDS011;52930;51.464;11.764;2022-12-11T07:39:49;14.88;;;5.35;;
66129;SDS011;52930;51.464;11.764;2022-12-11T07:42:14;13.87;;;4.53;;
66129;SDS011;52930;51.464;11.764;2022-12-11T07:44:40;17.07;;;5.57;;
66129;SDS011;52930;51.464;11.764;2022-12-11T07:47:05;14.82;;;5.18;;
66129;SDS011;52930;51.464;11.764;2022-12-11T07:49:31;14.40;;;5.30;;
66129;SDS011;52930;51.464;11.764;2022-12-11T07:51:56;16.67;;;5.23;;
66129;SDS011;52930;51.464;11.764;2022-12-11T07:54:21;13.27;;;5.60;;
66129;SDS011;52930;51.464;11.764;2022-12-11T07:56:47;15.93;;;6.17;;
66129;SDS011;52930;51.464;11.764;2022-12-11T07:59:12;15.13;;;5.63;;
66129;SDS011;52930;51.464;11.764;2022-12-11T08:01:38;17.05;;;6.00;;
66129;SDS011;52930;51.464;11.764;2022-12-11T08:04:07;15.37;;;5.90;;
66129;SDS011;52930;51.464;11.764;2022-12-11T08:06:35;15.02;;;5.05;;
66129;SDS011;52930;51.464;11.764;2022-12-11T08:09:03;14.95;;;6.03;;
66129;SDS011;52930;51.464;11.764;2022-12-11T08:11:30;16.17;;;5.05;;
66129;SDS011;52930;51.464;11.764;2022-12-11T08:13:56;14.63;;;5.70;;
66129;SDS011;52930;51.464;11.764;2022-12-11T08:16:23;15.52;;;6.05;;
66129;SDS011;52930;51.464;11.764;2022-12-11T08:18:49;17.45;;;5.85;;
66129;SDS011;52930;51.464;11.764;2022-12-11T08:21:16;14.17;;;4.80;;
66129;SDS011;52930;51.464;11.764;2022-12-11T08:23:45;14.73;;;4.90;;
66129;SDS011;52930;51.464;11.764;2022-12-11T08:26:13;16.25;;;5.68;;
66129;SDS011;52930;51.464;11.764;2022-12-11T08:28:39;15.07;;;5.83;;
66129;SDS011;52930;51.464;11.764;2022-12-11T08:31:08;17.45;;;6.03;;
66129;SDS011;52930;51.464;11.764;2022-12-11T08:33:35;18.90;;;6.10;;
66129;SDS011;52930;51.464;11.764;2022-12-11T08:36:02;16.30;;;5.80;;
66129;SDS011;52930;51.464;11.764;2022-12-11T08:38:28;17.35;;;5.47;;
66129;SDS011;52930;51.464;11.764;2022-12-11T08:40:54;17.07;;;5.43;;
66129;SDS011;52930;51.464;11.764;2022-12-11T08:43:20;15.93;;;5.60;;
66129;SDS011;52930;51.464;11.764;2022-12-11T08:45:45;18.02;;;6.20;;
66129;SDS011;52930;51.464;11.764;2022-12-11T08:48:11;15.50;;;5.50;;
66129;SDS011;52930;51.464;11.764;2022-12-11T08:50:36;18.33;;;6.00;;
66129;SDS011;52930;51.464;11.764;2022-12-11T08:53:02;16.70;;;5.83;;
66129;SDS011;52930;51.464;11.764;2022-12-11T08:55:28;15.55;;;5.90;;
66129;SDS011;52930;51.464;11.764;2022-12-11T08:57:53;16.07;;;5.37;;
66129;SDS011;52930;51.464;11.764;2022-12-11T09:00:19;17.05;;;5.55;;
66129;SDS011;52930;51.464;11.764;2022-12-11T09:02:44;15.70;;;5.30;;
66129;SDS011;52930;51.464;11.764;2022-12-11T09:05:10;15.57;;;5.57;;
66129;SDS011;52930;51.464;11.764;2022-12-11T09:07:35;18.40;;;5.60;;
66129;SDS011;52930;51.464;11.764;2022-12-11T09:10:02;15.05;;;5.55;;
66129;SDS011;52930;51.464;11.764;2022-12-11T09:12:29;20.38;;;6.25;;
66129;SDS011;52930;51.464;11.764;2022-12-11T09:14:55;17.57;;;6.13;;
66129;SDS011;52930;51.464;11.764;2022-12-11T09:17:21;16.23;;;5.80;;
66129;SDS011;52930;51.464;11.764;2022-12-11T09:19:46;20.83;;;6.00;;
66129;SDS011;52930;51.464;11.764;2022-12-11T09:22:11;16.10;;;5.70;;
66129;SDS011;52930;51.464;11.764;2022-12-11T09:24:37;15.23;;;5.60;;
66129;SDS011;52930;51.464;11.764;2022-12-11T09:27:03;14.37;;;4.70;;
66129;SDS011;52930;51.464;11.764;2022-12-11T09:29:29;18.52;;;6.00;;
66129;SDS011;52930;51.464;11.764;2022-12-11T09:31:55;17.67;;;5.43;;
66129;SDS011;52930;51.464;11.764;2022-12-11T09:34:20;15.70;;;5.60;;
66129;SDS011;52930;51.464;11.764;2022-12-11T09:36:46;19.27;;;5.80;;
66129;SDS011;52930;51.464;11.764;2022-12-11T09:39:12;15.20;;;5.70;;
66129;SDS011;52930;51.464;11.764;2022-12-11T09:50:31;16.63;;;6.00;;
66129;SDS011;52930;51.464;11.764;2022-12-11T09:55:41;15.55;;;5.65;;
66129;SDS011;52930;51.464;11.764;2022-12-11T09:59:15;15.85;;;5.95;;
66129;SDS011;52930;51.464;11.764;2022-12-11T10:10:08;18.77;;;5.70;;
66129;SDS011;52930;51.464;11.764;2022-12-11T10:15:32;17.52;;;5.78;;
66129;SDS011;52930;51.464;11.764;2022-12-11T10:18:02;17.08;;;5.55;;
66129;SDS011;52930;51.464;11.764;2022-12-11T10:20:32;15.30;;;5.57;;
66129;SDS011;52930;51.464;11.764;2022-12-11T10:23:07;17.23;;;5.93;;
66129;SDS011;52930;51.464;11.764;2022-12-11T10:25:41;18.98;;;6.40;;
66129;SDS011;52930;51.464;11.764;2022-12-11T10:28:14;16.25;;;5.82;;
66129;SDS011;52930;51.464;11.764;2022-12-11T10:36:26;18.17;;;5.68;;
66129;SDS011;52930;51.464;11.764;2022-12-11T10:38:55;16.52;;;4.50;;
66129;SDS011;52930;51.464;11.764;2022-12-11T10:41:23;17.00;;;6.30;;
66129;SDS011;52930;51.464;11.764;2022-12-11T10:43:51;18.33;;;5.70;;
66129;SDS011;52930;51.464;11.764;2022-12-11T10:46:24;19.13;;;5.90;;
66129;SDS011;52930;51.464;11.764;2022-12-11T10:48:56;21.02;;;6.30;;
66129;SDS011;52930;51.464;11.764;2022-12-11T10:53:57;16.30;;;6.07;;
66129;SDS011;52930;51.464;11.764;2022-12-11T10:56:30;17.27;;;5.23;;
66129;SDS011;52930;51.464;11.764;2022-12-11T10:58:57;19.90;;;6.20;;
66129;SDS011;52930;51.464;11.764;2022-12-11T11:01:24;17.20;;;6.03;;
66129;SDS011;52930;51.464;11.764;2022-12-11T11:09:41;18.03;;;6.13;;
66129;SDS011;52930;51.464;11.764;2022-12-11T11:12:40;17.65;;;5.20;;
66129;SDS011;52930;51.464;11.764;2022-12-11T11:15:03;18.42;;;6.55;;
66129;SDS011;52930;51.464;11.764;2022-12-11T11:17:43;17.48;;;6.22;;
66129;SDS011;52930;51.464;11.764;2022-12-11T11:20:14;17.27;;;5.93;;
66129;SDS011;52930;51.464;11.764;2022-12-11T11:22:46;19.92;;;6.50;;
66129;SDS011;52930;51.464;11.764;2022-12-11T11:25:24;16.38;;;5.57;;
66129;SDS011;52930;51.464;11.764;2022-12-11T11:27:54;17.17;;;5.35;;
66129;SDS011;52930;51.464;11.764;2022-12-11T11:30:23;15.90;;;5.05;;
66129;SDS011;52930;51.464;11.764;2022-12-11T11:35:54;16.88;;;5.80;;
66129;SDS011;52930;51.464;11.764;2022-12-11T11:38:34;16.60;;;5.22;;
66129;SDS011;52930;51.464;11.764;2022-12-11T11:41:16;18.13;;;5.82;;
66129;SDS011;52930;51.464;11.764;2022-12-11T11:43:44;16.92;;;5.50;;
66129;SDS011;52930;51.464;11.764;2022-12-11T11:48:43;13.50;;;5.07;;
66129;SDS011;52930;51.464;11.764;2022-12-11T11:51:15;19.20;;;6.15;;
66129;SDS011;52930;51.464;11.764;2022-12-11T11:54:08;16.15;;;5.45;;
66129;SDS011;52930;51.464;11.764;2022-12-11T11:56:44;17.63;;;5.45;;
66129;SDS011;52930;51.464;11.764;2022-12-11T11:59:15;15.60;;;5.23;;
66129;SDS011;52930;51.464;11.764;2022-12-11T12:01:45;16.27;;;5.57;;
66129;SDS011;52930;51.464;11.764;2022-12-11T12:04:11;18.73;;;5.90;;
66129;SDS011;52930;51.464;11.764;2022-12-11T12:14:21;18.02;;;5.90;;
66129;SDS011;52930;51.464;11.764;2022-12-11T12:25:24;15.27;;;5.35;;
66129;SDS011;52930;51.464;11.764;2022-12-11T12:30:49;14.97;;;4.47;;
66129;SDS011;52930;51.464;11.764;2022-12-11T12:33:57;14.60;;;5.32;;
66129;SDS011;52930;51.464;11.764;2022-12-11T12:36:42;14.85;;;4.82;;
66129;SDS011;52930;51.464;11.764;2022-12-11T12:39:18;17.45;;;4.63;;
66129;SDS011;52930;51.464;11.764;2022-12-11T12:44:15;18.17;;;5.33;;
66129;SDS011;52930;51.464;11.764;2022-12-11T12:46:50;17.17;;;5.30;;
66129;SDS011;52930;51.464;11.764;2022-12-11T12:52:01;14.73;;;5.03;;
66129;SDS011;52930;51.464;11.764;2022-12-11T12:54:28;16.45;;;5.65;;
66129;SDS011;52930;51.464;11.764;2022-12-11T12:56:54;15.10;;;5.17;;
66129;SDS011;52930;51.464;11.764;2022-12-11T12:59:24;19.40;;;6.20;;
66129;SDS011;52930;51.464;11.764;2022-12-11T13:01:55;14.55;;;5.28;;
66129;SDS011;52930;51.464;11.764;2022-12-11T13:04:44;14.20;;;5.10;;
66129;SDS011;52930;51.464;11.764;2022-12-11T13:07:21;18.13;;;5.68;;
66129;SDS011;52930;51.464;11.764;2022-12-11T13:10:00;13.97;;;4.97;;
66129;SDS011;52930;51.464;11.764;2022-12-11T13:12:46;15.82;;;5.22;;
66129;SDS011;52930;51.464;11.764;2022-12-11T13:17:57;16.88;;;5.38;;
66129;SDS011;52930;51.464;11.764;2022-12-11T13:20:24;16.48;;;5.70;;
66129;SDS011;52930;51.464;11.764;2022-12-11T13:25:32;15.18;;;5.18;;
66129;SDS011;52930;51.464;11.764;2022-12-11T13:33:40;20.27;;;6.15;;
66129;SDS011;52930;51.464;11.764;2022-12-11T13:38:32;21.30;;;6.38;;
66129;SDS011;52930;51.464;11.764;2022-12-11T13:40:58;18.80;;;6.55;;
66129;SDS011;52930;51.464;11.764;2022-12-11T13:43:27;17.20;;;5.53;;
66129;SDS011;52930;51.464;11.764;2022-12-11T13:45:54;18.30;;;6.78;;
66129;SDS011;52930;51.464;11.764;2022-12-11T13:50:58;15.95;;;5.63;;
66129;SDS011;52930;51.464;11.764;2022-12-11T13:53:24;18.03;;;6.27;;
66129;SDS011;52930;51.464;11.764;2022-12-11T13:55:56;17.90;;;5.65;;
66129;SDS011;52930;51.464;11.764;2022-12-11T13:58:22;21.77;;;6.30;;
66129;SDS011;52930;51.464;11.764;2022-12-11T14:01:05;18.30;;;5.78;;
66129;SDS011;52930;51.464;11.764;2022-12-11T14:03:32;21.53;;;6.13;;
66129;SDS011;52930;51.464;11.764;2022-12-11T14:05:59;22.23;;;6.70;;
66129;SDS011;52930;51.464;11.764;2022-12-11T14:08:26;21.25;;;6.80;;
66129;SDS011;52930;51.464;11.764;2022-12-11T14:10:56;23.02;;;6.65;;
66129;SDS011;52930;51.464;11.764;2022-12-11T14:13:22;23.37;;;7.43;;
66129;SDS011;52930;51.464;11.764;2022-12-11T14:15:49;27.00;;;7.28;;
66129;SDS011;52930;51.464;11.764;2022-12-11T14:18:23;24.40;;;7.33;;
66129;SDS011;52930;51.464;11.764;2022-12-11T14:20:58;23.25;;;7.40;;
66129;SDS011;52930;51.464;11.764;2022-12-11T14:23:26;20.90;;;6.55;;
66129;SDS011;52930;51.464;11.764;2022-12-11T14:28:23;20.77;;;7.18;;
66129;SDS011;52930;51.464;11.764;2022-12-11T14:30:52;21.10;;;7.10;;
66129;SDS011;52930;51.464;11.764;2022-12-11T14:33:19;22.00;;;7.15;;
66129;SDS011;52930;51.464;11.764;2022-12-11T14:35:46;18.33;;;6.13;;
66129;SDS011;52930;51.464;11.764;2022-12-11T14:38:15;24.42;;;7.70;;
66129;SDS011;52930;51.464;11.764;2022-12-11T14:40:42;24.45;;;8.20;;
66129;SDS011;52930;51.464;11.764;2022-12-11T14:43:26;22.90;;;8.30;;
66129;SDS011;52930;51.464;11.764;2022-12-11T14:45:56;27.60;;;7.95;;
66129;SDS011;52930;51.464;11.764;2022-12-11T14:48:26;29.48;;;8.52;;
66129;SDS011;52930;51.464;11.764;2022-12-11T14:50:54;26.33;;;7.53;;
66129;SDS011;52930;51.464;11.764;2022-12-11T14:53:22;25.92;;;7.65;;
66129;SDS011;52930;51.464;11.764;2022-12-11T14:55:50;28.20;;;8.87;;
66129;SDS011;52930;51.464;11.764;2022-12-11T14:58:23;24.17;;;7.45;;
66129;SDS011;52930;51.464;11.764;2022-12-11T15:00:59;21.60;;;6.78;;
66129;SDS011;52930;51.464;11.764;2022-12-11T15:03:36;27.38;;;7.55;;
66129;SDS011;52930;51.464;11.764;2022-12-11T15:06:20;23.52;;;6.75;;
66129;SDS011;52930;51.464;11.764;2022-12-11T15:08:49;24.00;;;8.00;;
66129;SDS011;52930;51.464;11.764;2022-12-11T15:11:16;18.02;;;6.22;;
66129;SDS011;52930;51.464;11.764;2022-12-11T15:13:52;21.80;;;7.75;;
66129;SDS011;52930;51.464;11.764;2022-12-11T15:16:18;22.88;;;7.80;;
66129;SDS011;52930;51.464;11.764;2022-12-11T15:18:46;26.30;;;7.87;;
66129;SDS011;52930;51.464;11.764;2022-12-11T15:21:12;22.73;;;7.05;;
66129;SDS011;52930;51.464;11.764;2022-12-11T15:26:09;23.27;;;7.57;;
66129;SDS011;52930;51.464;11.764;2022-12-11T15:28:36;24.87;;;8.07;;
66129;SDS011;52930;51.464;11.764;2022-12-11T15:31:06;21.52;;;6.70;;
66129;SDS011;52930;51.464;11.764;2022-12-11T15:33:47;23.58;;;7.30;;
66129;SDS011;52930;51.464;11.764;2022-12-11T15:38:50;21.35;;;6.75;;
66129;SDS011;52930;51.464;11.764;2022-12-11T15:41:16;15.67;;;6.50;;
66129;SDS011;52930;51.464;11.764;2022-12-11T15:43:48;19.02;;;6.53;;
66129;SDS011;52930;51.464;11.764;2022-12-11T15:46:15;20.27;;;6.65;;
66129;SDS011;52930;51.464;11.764;2022-12-11T15:48:40;18.90;;;6.13;;
66129;SDS011;52930;51.464;11.764;2022-12-11T15:51:05;23.30;;;7.27;;
66129;SDS011;52930;51.464;11.764;2022-12-11T15:53:31;21.33;;;7.90;;
66129;SDS011;52930;51.464;11.764;2022-12-11T15:55:56;21.60;;;7.50;;
66129;SDS011;52930;51.464;11.764;2022-12-11T15:58:23;22.03;;;7.50;;
66129;SDS011;52930;51.464;11.764;2022-12-11T16:00:49;23.15;;;7.20;;
66129;SDS011;52930;51.464;11.764;2022-12-11T16:03:16;24.70;;;7.10;;
66129;SDS011;52930;51.464;11.764;2022-12-11T16:05:43;20.45;;;7.00;;
66129;SDS011;52930;51.464;11.764;2022-12-11T16:08:10;22.98;;;7.18;;
66129;SDS011;52930;51.464;11.764;2022-12-11T16:10:39;30.60;;;9.60;;
66129;SDS011;52930;51.464;11.764;2022-12-11T16:13:10;21.27;;;7.43;;